sensor_id;sensor_type;location;lat;lon;timestamp;P1;durP1;ratioP1;P2;durP2;ratioP2
41927;SDS011;27616;51.420;6.788;2023-04-15T00:01:34;12.60;;;5.83;;
41927;SDS011;27616;51.420;6.788;2023-04-15T00:04:01;13.60;;;5.50;;
41927;SDS011;27616;51.420;6.788;2023-04-15T00:06:26;14.50;;;6.20;;
41927;SDS011;27616;51.420;6.788;2023-04-15T00:08:52;11.63;;;6.00;;
41927;SDS011;27616;51.420;6.788;2023-04-15T00:11:18;11.67;;;5.10;;
41927;SDS011;27616;51.420;6.788;2023-04-15T00:13:44;11.13;;;6.10;;
41927;SDS011;27616;51.420;6.788;2023-04-15T00:16:10;14.50;;;5.70;;
41927;SDS011;27616;51.420;6.788;2023-04-15T00:18:36;18.33;;;5.93;;
41927;SDS011;27616;51.420;6.788;2023-04-15T00:21:02;12.13;;;5.80;;
41927;SDS011;27616;51.420;6.788;2023-04-15T00:23:28;12.60;;;5.70;;
41927;SDS011;27616;51.420;6.788;2023-04-15T00:25:54;15.30;;;5.73;;
41927;SDS011;27616;51.420;6.788;2023-04-15T00:28:20;14.40;;;5.60;;
41927;SDS011;27616;51.420;6.788;2023-04-15T00:30:46;15.27;;;5.87;;
41927;SDS011;27616;51.420;6.788;2023-04-15T00:33:12;10.50;;;4.80;;
41927;SDS011;27616;51.420;6.788;2023-04-15T00:35:40;13.13;;;5.80;;
41927;SDS011;27616;51.420;6.788;2023-04-15T00:38:07;11.23;;;5.33;;
41927;SDS011;27616;51.420;6.788;2023-04-15T00:40:32;11.97;;;5.10;;
41927;SDS011;27616;51.420;6.788;2023-04-15T00:42:59;13.00;;;5.57;;
41927;SDS011;27616;51.420;6.788;2023-04-15T00:45:25;10.33;;;5.60;;
41927;SDS011;27616;51.420;6.788;2023-04-15T00:47:53;14.13;;;6.10;;
41927;SDS011;27616;51.420;6.788;2023-04-15T00:50:20;13.60;;;5.77;;
41927;SDS011;27616;51.420;6.788;2023-04-15T00:52:46;11.40;;;5.40;;
41927;SDS011;27616;51.420;6.788;2023-04-15T00:55:13;13.57;;;6.20;;
41927;SDS011;27616;51.420;6.788;2023-04-15T00:57:39;12.33;;;5.90;;
41927;SDS011;27616;51.420;6.788;2023-04-15T01:00:05;14.33;;;6.17;;
41927;SDS011;27616;51.420;6.788;2023-04-15T01:02:36;11.67;;;5.77;;
41927;SDS011;27616;51.420;6.788;2023-04-15T01:05:02;13.43;;;5.80;;
41927;SDS011;27616;51.420;6.788;2023-04-15T01:07:29;13.33;;;5.70;;
41927;SDS011;27616;51.420;6.788;2023-04-15T01:09:55;11.73;;;5.27;;
41927;SDS011;27616;51.420;6.788;2023-04-15T01:12:22;13.40;;;5.57;;
41927;SDS011;27616;51.420;6.788;2023-04-15T01:14:50;13.87;;;6.27;;
41927;SDS011;27616;51.420;6.788;2023-04-15T01:17:16;13.93;;;6.37;;
41927;SDS011;27616;51.420;6.788;2023-04-15T01:19:41;11.77;;;6.10;;
41927;SDS011;27616;51.420;6.788;2023-04-15T01:22:08;12.13;;;6.63;;
41927;SDS011;27616;51.420;6.788;2023-04-15T01:27:15;19.83;;;7.27;;
41927;SDS011;27616;51.420;6.788;2023-04-15T01:29:40;15.03;;;6.93;;
41927;SDS011;27616;51.420;6.788;2023-04-15T01:32:07;12.97;;;6.70;;
41927;SDS011;27616;51.420;6.788;2023-04-15T01:34:33;16.97;;;7.40;;
41927;SDS011;27616;51.420;6.788;2023-04-15T01:36:58;11.33;;;6.90;;
41927;SDS011;27616;51.420;6.788;2023-04-15T01:39:24;14.00;;;7.97;;
41927;SDS011;27616;51.420;6.788;2023-04-15T01:41:50;13.33;;;7.20;;
41927;SDS011;27616;51.420;6.788;2023-04-15T01:44:16;16.83;;;7.70;;
41927;SDS011;27616;51.420;6.788;2023-04-15T01:46:41;15.80;;;8.47;;
41927;SDS011;27616;51.420;6.788;2023-04-15T01:49:07;15.93;;;7.40;;
41927;SDS011;27616;51.420;6.788;2023-04-15T01:51:33;16.00;;;8.53;;
41927;SDS011;27616;51.420;6.788;2023-04-15T01:53:59;16.63;;;8.07;;
41927;SDS011;27616;51.420;6.788;2023-04-15T01:56:24;17.00;;;8.27;;
41927;SDS011;27616;51.420;6.788;2023-04-15T01:58:50;18.70;;;8.40;;
41927;SDS011;27616;51.420;6.788;2023-04-15T02:01:16;16.27;;;8.03;;
41927;SDS011;27616;51.420;6.788;2023-04-15T02:03:44;16.27;;;7.87;;
41927;SDS011;27616;51.420;6.788;2023-04-15T02:06:10;15.37;;;8.17;;
41927;SDS011;27616;51.420;6.788;2023-04-15T02:08:36;14.63;;;8.50;;
41927;SDS011;27616;51.420;6.788;2023-04-15T02:11:05;18.60;;;8.50;;
41927;SDS011;27616;51.420;6.788;2023-04-15T02:13:31;16.63;;;8.00;;
41927;SDS011;27616;51.420;6.788;2023-04-15T02:15:57;18.77;;;8.60;;
41927;SDS011;27616;51.420;6.788;2023-04-15T02:18:23;17.90;;;9.13;;
41927;SDS011;27616;51.420;6.788;2023-04-15T02:20:50;16.53;;;9.17;;
41927;SDS011;27616;51.420;6.788;2023-04-15T02:23:16;15.60;;;8.73;;
41927;SDS011;27616;51.420;6.788;2023-04-15T02:25:43;17.33;;;8.67;;
41927;SDS011;27616;51.420;6.788;2023-04-15T02:28:09;17.13;;;8.43;;
41927;SDS011;27616;51.420;6.788;2023-04-15T02:30:35;15.07;;;9.10;;
41927;SDS011;27616;51.420;6.788;2023-04-15T02:33:01;17.57;;;9.10;;
41927;SDS011;27616;51.420;6.788;2023-04-15T02:35:27;19.87;;;10.00;;
41927;SDS011;27616;51.420;6.788;2023-04-15T02:37:53;18.37;;;9.50;;
41927;SDS011;27616;51.420;6.788;2023-04-15T02:40:19;16.57;;;9.30;;
41927;SDS011;27616;51.420;6.788;2023-04-15T02:42:45;17.50;;;9.27;;
41927;SDS011;27616;51.420;6.788;2023-04-15T02:45:14;20.10;;;9.53;;
41927;SDS011;27616;51.420;6.788;2023-04-15T02:47:41;18.13;;;9.57;;
41927;SDS011;27616;51.420;6.788;2023-04-15T02:50:09;15.47;;;9.27;;
41927;SDS011;27616;51.420;6.788;2023-04-15T02:52:41;15.30;;;9.77;;
41927;SDS011;27616;51.420;6.788;2023-04-15T02:55:08;17.07;;;9.53;;
41927;SDS011;27616;51.420;6.788;2023-04-15T02:57:35;18.37;;;9.33;;
41927;SDS011;27616;51.420;6.788;2023-04-15T03:00:05;18.10;;;10.30;;
41927;SDS011;27616;51.420;6.788;2023-04-15T03:05:02;17.30;;;9.30;;
41927;SDS011;27616;51.420;6.788;2023-04-15T03:07:28;18.77;;;10.23;;
41927;SDS011;27616;51.420;6.788;2023-04-15T03:09:54;16.07;;;9.47;;
41927;SDS011;27616;51.420;6.788;2023-04-15T03:12:20;15.17;;;9.50;;
41927;SDS011;27616;51.420;6.788;2023-04-15T03:14:46;21.20;;;10.83;;
41927;SDS011;27616;51.420;6.788;2023-04-15T03:17:13;17.30;;;9.90;;
41927;SDS011;27616;51.420;6.788;2023-04-15T03:19:42;20.43;;;10.93;;
41927;SDS011;27616;51.420;6.788;2023-04-15T03:22:09;16.43;;;10.37;;
41927;SDS011;27616;51.420;6.788;2023-04-15T03:24:35;19.30;;;10.87;;
41927;SDS011;27616;51.420;6.788;2023-04-15T03:27:01;20.83;;;10.83;;
41927;SDS011;27616;51.420;6.788;2023-04-15T03:29:27;19.93;;;11.10;;
41927;SDS011;27616;51.420;6.788;2023-04-15T03:31:53;16.83;;;10.63;;
41927;SDS011;27616;51.420;6.788;2023-04-15T03:34:19;16.47;;;10.47;;
41927;SDS011;27616;51.420;6.788;2023-04-15T03:36:45;18.83;;;10.73;;
41927;SDS011;27616;51.420;6.788;2023-04-15T03:39:11;21.83;;;11.17;;
41927;SDS011;27616;51.420;6.788;2023-04-15T03:41:37;17.87;;;10.80;;
41927;SDS011;27616;51.420;6.788;2023-04-15T03:44:02;19.23;;;10.60;;
41927;SDS011;27616;51.420;6.788;2023-04-15T03:46:28;19.13;;;11.17;;
41927;SDS011;27616;51.420;6.788;2023-04-15T03:48:54;23.17;;;10.27;;
41927;SDS011;27616;51.420;6.788;2023-04-15T03:51:19;17.63;;;11.03;;
41927;SDS011;27616;51.420;6.788;2023-04-15T03:53:45;18.30;;;11.10;;
41927;SDS011;27616;51.420;6.788;2023-04-15T03:56:11;16.77;;;10.27;;
41927;SDS011;27616;51.420;6.788;2023-04-15T03:58:37;19.13;;;11.37;;
41927;SDS011;27616;51.420;6.788;2023-04-15T04:01:02;17.40;;;10.40;;
41927;SDS011;27616;51.420;6.788;2023-04-15T04:03:28;24.63;;;11.47;;
41927;SDS011;27616;51.420;6.788;2023-04-15T04:05:54;21.97;;;12.17;;
41927;SDS011;27616;51.420;6.788;2023-04-15T04:08:20;19.77;;;11.20;;
41927;SDS011;27616;51.420;6.788;2023-04-15T04:10:46;19.20;;;10.67;;
41927;SDS011;27616;51.420;6.788;2023-04-15T04:13:11;19.80;;;10.63;;
41927;SDS011;27616;51.420;6.788;2023-04-15T04:15:37;19.63;;;11.30;;
41927;SDS011;27616;51.420;6.788;2023-04-15T04:18:03;20.90;;;11.50;;
41927;SDS011;27616;51.420;6.788;2023-04-15T04:20:28;20.03;;;10.90;;
41927;SDS011;27616;51.420;6.788;2023-04-15T04:22:56;16.20;;;10.67;;
41927;SDS011;27616;51.420;6.788;2023-04-15T04:25:22;18.13;;;11.10;;
41927;SDS011;27616;51.420;6.788;2023-04-15T04:27:48;18.67;;;11.07;;
41927;SDS011;27616;51.420;6.788;2023-04-15T04:30:14;18.67;;;11.40;;
41927;SDS011;27616;51.420;6.788;2023-04-15T04:32:40;16.77;;;10.40;;
41927;SDS011;27616;51.420;6.788;2023-04-15T04:35:06;17.20;;;10.50;;
41927;SDS011;27616;51.420;6.788;2023-04-15T04:37:32;17.43;;;10.67;;
41927;SDS011;27616;51.420;6.788;2023-04-15T04:39:57;17.00;;;10.50;;
41927;SDS011;27616;51.420;6.788;2023-04-15T04:42:23;16.47;;;10.50;;
41927;SDS011;27616;51.420;6.788;2023-04-15T04:44:49;18.27;;;10.67;;
41927;SDS011;27616;51.420;6.788;2023-04-15T04:47:15;15.83;;;10.47;;
41927;SDS011;27616;51.420;6.788;2023-04-15T04:49:41;19.13;;;10.83;;
41927;SDS011;27616;51.420;6.788;2023-04-15T04:52:06;17.60;;;11.10;;
41927;SDS011;27616;51.420;6.788;2023-04-15T04:54:32;16.57;;;10.77;;
41927;SDS011;27616;51.420;6.788;2023-04-15T04:56:58;19.27;;;10.83;;
41927;SDS011;27616;51.420;6.788;2023-04-15T04:59:24;18.40;;;10.77;;
41927;SDS011;27616;51.420;6.788;2023-04-15T05:01:50;18.57;;;10.83;;
41927;SDS011;27616;51.420;6.788;2023-04-15T05:04:16;19.57;;;10.77;;
41927;SDS011;27616;51.420;6.788;2023-04-15T05:06:42;24.83;;;11.40;;
41927;SDS011;27616;51.420;6.788;2023-04-15T05:09:08;19.90;;;11.40;;
41927;SDS011;27616;51.420;6.788;2023-04-15T05:11:33;21.77;;;12.20;;
41927;SDS011;27616;51.420;6.788;2023-04-15T05:13:59;23.47;;;11.93;;
41927;SDS011;27616;51.420;6.788;2023-04-15T05:16:26;22.13;;;11.67;;
41927;SDS011;27616;51.420;6.788;2023-04-15T05:18:52;23.20;;;11.87;;
41927;SDS011;27616;51.420;6.788;2023-04-15T05:21:18;20.87;;;11.30;;
41927;SDS011;27616;51.420;6.788;2023-04-15T05:23:44;22.90;;;12.10;;
41927;SDS011;27616;51.420;6.788;2023-04-15T05:26:10;17.33;;;11.17;;
41927;SDS011;27616;51.420;6.788;2023-04-15T05:28:36;17.30;;;11.17;;
41927;SDS011;27616;51.420;6.788;2023-04-15T05:31:02;18.47;;;11.17;;
41927;SDS011;27616;51.420;6.788;2023-04-15T05:33:27;17.40;;;10.97;;
41927;SDS011;27616;51.420;6.788;2023-04-15T05:35:54;21.17;;;10.53;;
41927;SDS011;27616;51.420;6.788;2023-04-15T05:38:22;17.87;;;10.47;;
41927;SDS011;27616;51.420;6.788;2023-04-15T05:40:48;19.37;;;11.93;;
41927;SDS011;27616;51.420;6.788;2023-04-15T05:43:13;20.67;;;11.30;;
41927;SDS011;27616;51.420;6.788;2023-04-15T05:45:39;18.57;;;11.37;;
41927;SDS011;27616;51.420;6.788;2023-04-15T05:48:05;19.87;;;11.23;;
41927;SDS011;27616;51.420;6.788;2023-04-15T05:50:31;17.43;;;11.30;;
41927;SDS011;27616;51.420;6.788;2023-04-15T05:52:57;20.03;;;10.70;;
41927;SDS011;27616;51.420;6.788;2023-04-15T05:55:22;18.63;;;10.70;;
41927;SDS011;27616;51.420;6.788;2023-04-15T05:57:48;16.23;;;10.23;;
41927;SDS011;27616;51.420;6.788;2023-04-15T06:00:14;20.87;;;11.53;;
41927;SDS011;27616;51.420;6.788;2023-04-15T06:02:40;19.87;;;12.10;;
41927;SDS011;27616;51.420;6.788;2023-04-15T06:05:06;17.70;;;10.90;;
41927;SDS011;27616;51.420;6.788;2023-04-15T06:07:36;17.20;;;11.20;;
41927;SDS011;27616;51.420;6.788;2023-04-15T06:10:02;18.43;;;11.00;;
41927;SDS011;27616;51.420;6.788;2023-04-15T06:12:28;25.27;;;12.13;;
41927;SDS011;27616;51.420;6.788;2023-04-15T06:14:54;18.37;;;10.93;;
41927;SDS011;27616;51.420;6.788;2023-04-15T06:17:20;18.80;;;11.40;;
41927;SDS011;27616;51.420;6.788;2023-04-15T06:19:46;19.37;;;12.03;;
41927;SDS011;27616;51.420;6.788;2023-04-15T06:22:11;17.47;;;10.90;;
41927;SDS011;27616;51.420;6.788;2023-04-15T06:24:37;17.37;;;11.23;;
41927;SDS011;27616;51.420;6.788;2023-04-15T06:27:03;18.57;;;11.63;;
41927;SDS011;27616;51.420;6.788;2023-04-15T06:29:28;18.13;;;11.67;;
41927;SDS011;27616;51.420;6.788;2023-04-15T06:31:54;20.17;;;12.17;;
41927;SDS011;27616;51.420;6.788;2023-04-15T06:34:20;17.70;;;12.00;;
41927;SDS011;27616;51.420;6.788;2023-04-15T06:36:46;18.17;;;12.13;;
41927;SDS011;27616;51.420;6.788;2023-04-15T06:39:12;18.33;;;11.97;;
41927;SDS011;27616;51.420;6.788;2023-04-15T06:41:38;17.43;;;11.50;;
41927;SDS011;27616;51.420;6.788;2023-04-15T06:44:03;18.33;;;11.37;;
41927;SDS011;27616;51.420;6.788;2023-04-15T06:46:29;20.70;;;11.90;;
41927;SDS011;27616;51.420;6.788;2023-04-15T06:48:55;17.33;;;11.53;;
41927;SDS011;27616;51.420;6.788;2023-04-15T06:51:21;17.87;;;12.07;;
41927;SDS011;27616;51.420;6.788;2023-04-15T06:53:48;19.17;;;11.80;;
41927;SDS011;27616;51.420;6.788;2023-04-15T06:56:13;17.03;;;11.57;;
41927;SDS011;27616;51.420;6.788;2023-04-15T06:58:39;19.00;;;11.37;;
41927;SDS011;27616;51.420;6.788;2023-04-15T07:01:05;15.83;;;11.07;;
41927;SDS011;27616;51.420;6.788;2023-04-15T07:03:31;18.03;;;11.37;;
41927;SDS011;27616;51.420;6.788;2023-04-15T07:05:57;17.93;;;11.10;;
41927;SDS011;27616;51.420;6.788;2023-04-15T07:08:23;18.33;;;11.37;;
41927;SDS011;27616;51.420;6.788;2023-04-15T07:10:49;18.50;;;11.07;;
41927;SDS011;27616;51.420;6.788;2023-04-15T07:13:15;16.00;;;10.17;;
41927;SDS011;27616;51.420;6.788;2023-04-15T07:15:41;17.90;;;11.17;;
41927;SDS011;27616;51.420;6.788;2023-04-15T07:18:07;19.40;;;11.40;;
41927;SDS011;27616;51.420;6.788;2023-04-15T07:20:33;17.27;;;10.27;;
41927;SDS011;27616;51.420;6.788;2023-04-15T07:22:59;14.03;;;8.97;;
41927;SDS011;27616;51.420;6.788;2023-04-15T07:25:25;11.50;;;7.73;;
41927;SDS011;27616;51.420;6.788;2023-04-15T07:27:51;13.43;;;8.17;;
41927;SDS011;27616;51.420;6.788;2023-04-15T07:30:17;11.47;;;7.70;;
41927;SDS011;27616;51.420;6.788;2023-04-15T07:32:43;15.47;;;8.40;;
41927;SDS011;27616;51.420;6.788;2023-04-15T07:35:09;11.33;;;7.63;;
41927;SDS011;27616;51.420;6.788;2023-04-15T07:37:35;12.20;;;6.97;;
41927;SDS011;27616;51.420;6.788;2023-04-15T07:40:01;10.63;;;6.97;;
41927;SDS011;27616;51.420;6.788;2023-04-15T07:42:31;11.27;;;6.80;;
41927;SDS011;27616;51.420;6.788;2023-04-15T07:44:58;9.63;;;6.23;;
41927;SDS011;27616;51.420;6.788;2023-04-15T07:47:23;11.53;;;6.90;;
41927;SDS011;27616;51.420;6.788;2023-04-15T07:49:49;9.97;;;7.03;;
41927;SDS011;27616;51.420;6.788;2023-04-15T07:52:15;11.33;;;7.30;;
41927;SDS011;27616;51.420;6.788;2023-04-15T07:54:41;10.20;;;6.73;;
41927;SDS011;27616;51.420;6.788;2023-04-15T07:57:07;10.77;;;6.43;;
41927;SDS011;27616;51.420;6.788;2023-04-15T07:59:32;10.83;;;6.73;;
41927;SDS011;27616;51.420;6.788;2023-04-15T08:01:58;10.33;;;6.77;;
41927;SDS011;27616;51.420;6.788;2023-04-15T08:04:24;12.90;;;7.03;;
41927;SDS011;27616;51.420;6.788;2023-04-15T08:06:50;9.13;;;6.60;;
41927;SDS011;27616;51.420;6.788;2023-04-15T08:09:16;9.87;;;6.60;;
41927;SDS011;27616;51.420;6.788;2023-04-15T08:11:42;9.63;;;5.63;;
41927;SDS011;27616;51.420;6.788;2023-04-15T08:14:08;7.80;;;5.33;;
41927;SDS011;27616;51.420;6.788;2023-04-15T08:16:33;8.40;;;4.90;;
41927;SDS011;27616;51.420;6.788;2023-04-15T08:18:59;6.00;;;3.90;;
41927;SDS011;27616;51.420;6.788;2023-04-15T08:21:25;6.57;;;3.83;;
41927;SDS011;27616;51.420;6.788;2023-04-15T08:23:52;7.00;;;3.97;;
41927;SDS011;27616;51.420;6.788;2023-04-15T08:26:19;7.13;;;3.80;;
41927;SDS011;27616;51.420;6.788;2023-04-15T08:28:45;7.30;;;4.33;;
41927;SDS011;27616;51.420;6.788;2023-04-15T08:31:14;7.13;;;3.80;;
41927;SDS011;27616;51.420;6.788;2023-04-15T08:33:41;6.03;;;3.90;;
41927;SDS011;27616;51.420;6.788;2023-04-15T08:36:07;7.37;;;3.80;;
41927;SDS011;27616;51.420;6.788;2023-04-15T08:38:33;6.63;;;4.00;;
41927;SDS011;27616;51.420;6.788;2023-04-15T08:41:02;8.23;;;3.60;;
41927;SDS011;27616;51.420;6.788;2023-04-15T08:43:34;5.30;;;3.47;;
41927;SDS011;27616;51.420;6.788;2023-04-15T08:46:02;6.25;;;3.53;;
41927;SDS011;27616;51.420;6.788;2023-04-15T08:48:31;6.53;;;3.77;;
41927;SDS011;27616;51.420;6.788;2023-04-15T08:50:58;6.07;;;3.80;;
41927;SDS011;27616;51.420;6.788;2023-04-15T08:53:25;5.40;;;3.40;;
41927;SDS011;27616;51.420;6.788;2023-04-15T08:55:53;5.10;;;2.90;;
41927;SDS011;27616;51.420;6.788;2023-04-15T08:58:21;5.65;;;3.05;;
41927;SDS011;27616;51.420;6.788;2023-04-15T09:00:49;4.87;;;2.63;;
41927;SDS011;27616;51.420;6.788;2023-04-15T09:03:15;5.00;;;2.73;;
41927;SDS011;27616;51.420;6.788;2023-04-15T09:05:41;4.70;;;2.87;;
41927;SDS011;27616;51.420;6.788;2023-04-15T09:08:08;4.63;;;2.75;;
41927;SDS011;27616;51.420;6.788;2023-04-15T09:10:33;4.80;;;3.20;;
41927;SDS011;27616;51.420;6.788;2023-04-15T09:12:59;5.35;;;3.30;;
41927;SDS011;27616;51.420;6.788;2023-04-15T09:15:26;6.00;;;3.38;;
41927;SDS011;27616;51.420;6.788;2023-04-15T09:17:53;5.78;;;3.30;;
41927;SDS011;27616;51.420;6.788;2023-04-15T09:20:20;7.20;;;3.60;;
41927;SDS011;27616;51.420;6.788;2023-04-15T09:22:47;6.00;;;3.53;;
41927;SDS011;27616;51.420;6.788;2023-04-15T09:27:50;5.68;;;3.17;;
41927;SDS011;27616;51.420;6.788;2023-04-15T09:30:16;5.93;;;3.25;;
41927;SDS011;27616;51.420;6.788;2023-04-15T09:32:52;5.20;;;3.10;;
41927;SDS011;27616;51.420;6.788;2023-04-15T09:35:20;5.07;;;3.25;;
41927;SDS011;27616;51.420;6.788;2023-04-15T09:37:47;6.22;;;3.40;;
41927;SDS011;27616;51.420;6.788;2023-04-15T09:40:35;5.50;;;3.10;;
41927;SDS011;27616;51.420;6.788;2023-04-15T09:43:05;5.55;;;3.90;;
41927;SDS011;27616;51.420;6.788;2023-04-15T09:45:32;7.32;;;3.83;;
41927;SDS011;27616;51.420;6.788;2023-04-15T09:47:59;6.10;;;3.67;;
41927;SDS011;27616;51.420;6.788;2023-04-15T09:50:40;5.25;;;3.20;;
41927;SDS011;27616;51.420;6.788;2023-04-15T09:53:10;6.82;;;3.30;;
41927;SDS011;27616;51.420;6.788;2023-04-15T09:55:42;6.38;;;3.05;;
41927;SDS011;27616;51.420;6.788;2023-04-15T09:58:16;5.65;;;3.22;;
41927;SDS011;27616;51.420;6.788;2023-04-15T10:00:46;5.07;;;3.40;;
41927;SDS011;27616;51.420;6.788;2023-04-15T10:03:18;5.90;;;3.30;;
41927;SDS011;27616;51.420;6.788;2023-04-15T10:05:46;6.13;;;3.70;;
41927;SDS011;27616;51.420;6.788;2023-04-15T10:08:14;5.53;;;3.22;;
41927;SDS011;27616;51.420;6.788;2023-04-15T10:10:43;7.50;;;4.85;;
41927;SDS011;27616;51.420;6.788;2023-04-15T10:13:18;6.47;;;3.90;;
41927;SDS011;27616;51.420;6.788;2023-04-15T10:18:28;5.45;;;3.88;;
41927;SDS011;27616;51.420;6.788;2023-04-15T10:20:58;8.10;;;3.70;;
41927;SDS011;27616;51.420;6.788;2023-04-15T10:23:25;5.90;;;3.92;;
41927;SDS011;27616;51.420;6.788;2023-04-15T10:25:52;6.40;;;4.15;;
41927;SDS011;27616;51.420;6.788;2023-04-15T10:28:19;5.07;;;3.63;;
41927;SDS011;27616;51.420;6.788;2023-04-15T10:30:47;6.07;;;3.80;;
41927;SDS011;27616;51.420;6.788;2023-04-15T10:33:14;5.03;;;3.97;;
41927;SDS011;27616;51.420;6.788;2023-04-15T10:35:44;4.93;;;3.70;;
41927;SDS011;27616;51.420;6.788;2023-04-15T10:41:19;8.80;;;3.80;;
41927;SDS011;27616;51.420;6.788;2023-04-15T10:43:53;6.15;;;4.10;;
41927;SDS011;27616;51.420;6.788;2023-04-15T10:46:39;6.25;;;4.30;;
41927;SDS011;27616;51.420;6.788;2023-04-15T10:49:07;6.18;;;4.20;;
41927;SDS011;27616;51.420;6.788;2023-04-15T10:51:44;6.13;;;4.20;;
41927;SDS011;27616;51.420;6.788;2023-04-15T10:54:15;7.10;;;4.43;;
41927;SDS011;27616;51.420;6.788;2023-04-15T10:59:30;7.03;;;4.40;;
41927;SDS011;27616;51.420;6.788;2023-04-15T11:01:59;8.03;;;4.03;;
41927;SDS011;27616;51.420;6.788;2023-04-15T11:12:37;6.03;;;3.43;;
41927;SDS011;27616;51.420;6.788;2023-04-15T11:18:08;5.40;;;3.70;;
41927;SDS011;27616;51.420;6.788;2023-04-15T11:20:39;6.53;;;4.07;;
41927;SDS011;27616;51.420;6.788;2023-04-15T11:23:07;7.17;;;3.87;;
41927;SDS011;27616;51.420;6.788;2023-04-15T11:25:33;5.73;;;3.37;;
41927;SDS011;27616;51.420;6.788;2023-04-15T11:28:01;5.40;;;3.30;;
41927;SDS011;27616;51.420;6.788;2023-04-15T11:30:29;5.17;;;3.47;;
41927;SDS011;27616;51.420;6.788;2023-04-15T11:32:57;7.57;;;3.60;;
41927;SDS011;27616;51.420;6.788;2023-04-15T11:35:28;5.20;;;3.20;;
41927;SDS011;27616;51.420;6.788;2023-04-15T11:37:54;5.70;;;3.80;;
41927;SDS011;27616;51.420;6.788;2023-04-15T11:40:24;6.50;;;3.77;;
41927;SDS011;27616;51.420;6.788;2023-04-15T11:43:12;6.03;;;3.77;;
41927;SDS011;27616;51.420;6.788;2023-04-15T11:45:57;6.30;;;3.70;;
41927;SDS011;27616;51.420;6.788;2023-04-15T11:48:25;4.77;;;3.30;;
41927;SDS011;27616;51.420;6.788;2023-04-15T11:50:53;4.50;;;2.80;;
41927;SDS011;27616;51.420;6.788;2023-04-15T11:53:20;5.63;;;3.60;;
41927;SDS011;27616;51.420;6.788;2023-04-15T11:55:46;4.73;;;3.40;;
41927;SDS011;27616;51.420;6.788;2023-04-15T12:00:53;7.13;;;3.60;;
41927;SDS011;27616;51.420;6.788;2023-04-15T12:03:27;7.33;;;3.90;;
41927;SDS011;27616;51.420;6.788;2023-04-15T12:19:10;6.20;;;3.20;;
41927;SDS011;27616;51.420;6.788;2023-04-15T12:21:38;5.33;;;3.53;;
41927;SDS011;27616;51.420;6.788;2023-04-15T12:24:08;4.80;;;3.37;;
41927;SDS011;27616;51.420;6.788;2023-04-15T12:26:36;4.87;;;3.03;;
41927;SDS011;27616;51.420;6.788;2023-04-15T12:29:07;6.33;;;3.50;;
41927;SDS011;27616;51.420;6.788;2023-04-15T12:31:35;4.67;;;3.10;;
41927;SDS011;27616;51.420;6.788;2023-04-15T12:34:01;5.10;;;2.90;;
41927;SDS011;27616;51.420;6.788;2023-04-15T12:36:28;3.93;;;2.80;;
41927;SDS011;27616;51.420;6.788;2023-04-15T12:39:00;6.03;;;2.73;;
41927;SDS011;27616;51.420;6.788;2023-04-15T12:41:32;6.37;;;3.00;;
41927;SDS011;27616;51.420;6.788;2023-04-15T12:43:58;6.33;;;3.20;;
41927;SDS011;27616;51.420;6.788;2023-04-15T12:46:24;4.87;;;3.33;;
41927;SDS011;27616;51.420;6.788;2023-04-15T12:48:51;5.83;;;3.37;;
41927;SDS011;27616;51.420;6.788;2023-04-15T12:51:17;4.77;;;2.70;;
41927;SDS011;27616;51.420;6.788;2023-04-15T12:53:45;4.90;;;2.90;;
41927;SDS011;27616;51.420;6.788;2023-04-15T12:56:12;4.73;;;2.77;;
41927;SDS011;27616;51.420;6.788;2023-04-15T12:58:37;5.30;;;2.63;;
41927;SDS011;27616;51.420;6.788;2023-04-15T13:01:03;4.90;;;2.70;;
41927;SDS011;27616;51.420;6.788;2023-04-15T13:03:29;4.33;;;2.67;;
41927;SDS011;27616;51.420;6.788;2023-04-15T13:05:54;3.80;;;2.40;;
41927;SDS011;27616;51.420;6.788;2023-04-15T13:08:21;3.93;;;2.30;;
41927;SDS011;27616;51.420;6.788;2023-04-15T13:10:47;4.13;;;2.63;;
41927;SDS011;27616;51.420;6.788;2023-04-15T13:13:13;7.30;;;3.70;;
41927;SDS011;27616;51.420;6.788;2023-04-15T13:15:39;6.97;;;3.87;;
41927;SDS011;27616;51.420;6.788;2023-04-15T13:18:05;5.07;;;3.57;;
41927;SDS011;27616;51.420;6.788;2023-04-15T13:20:31;5.50;;;3.67;;
41927;SDS011;27616;51.420;6.788;2023-04-15T13:22:57;6.63;;;4.00;;
41927;SDS011;27616;51.420;6.788;2023-04-15T13:25:23;5.30;;;3.13;;
41927;SDS011;27616;51.420;6.788;2023-04-15T13:27:50;5.70;;;3.43;;
41927;SDS011;27616;51.420;6.788;2023-04-15T13:30:15;5.27;;;2.97;;
41927;SDS011;27616;51.420;6.788;2023-04-15T13:32:41;5.93;;;3.30;;
41927;SDS011;27616;51.420;6.788;2023-04-15T13:35:07;5.13;;;2.70;;
41927;SDS011;27616;51.420;6.788;2023-04-15T13:37:33;3.77;;;2.53;;
41927;SDS011;27616;51.420;6.788;2023-04-15T13:39:59;5.43;;;2.63;;
41927;SDS011;27616;51.420;6.788;2023-04-15T13:42:25;3.53;;;2.23;;
41927;SDS011;27616;51.420;6.788;2023-04-15T13:44:51;4.67;;;2.93;;
41927;SDS011;27616;51.420;6.788;2023-04-15T13:47:20;5.27;;;2.50;;
41927;SDS011;27616;51.420;6.788;2023-04-15T13:49:46;8.32;;;2.60;;
41927;SDS011;27616;51.420;6.788;2023-04-15T13:52:12;4.83;;;2.70;;
41927;SDS011;27616;51.420;6.788;2023-04-15T13:54:38;6.50;;;3.03;;
41927;SDS011;27616;51.420;6.788;2023-04-15T13:57:04;6.23;;;3.00;;
41927;SDS011;27616;51.420;6.788;2023-04-15T13:59:30;4.13;;;2.33;;
41927;SDS011;27616;51.420;6.788;2023-04-15T14:01:57;5.43;;;2.93;;
41927;SDS011;27616;51.420;6.788;2023-04-15T14:04:23;8.03;;;3.00;;
41927;SDS011;27616;51.420;6.788;2023-04-15T14:06:49;5.63;;;2.57;;
41927;SDS011;27616;51.420;6.788;2023-04-15T14:09:15;6.83;;;2.80;;
41927;SDS011;27616;51.420;6.788;2023-04-15T14:11:41;5.70;;;2.80;;
41927;SDS011;27616;51.420;6.788;2023-04-15T14:14:06;8.13;;;3.47;;
41927;SDS011;27616;51.420;6.788;2023-04-15T14:16:32;4.17;;;2.50;;
41927;SDS011;27616;51.420;6.788;2023-04-15T14:18:58;4.40;;;2.63;;
41927;SDS011;27616;51.420;6.788;2023-04-15T14:21:25;4.97;;;2.50;;
41927;SDS011;27616;51.420;6.788;2023-04-15T14:23:52;4.70;;;2.57;;
41927;SDS011;27616;51.420;6.788;2023-04-15T14:26:18;5.80;;;2.60;;
41927;SDS011;27616;51.420;6.788;2023-04-15T14:28:44;4.33;;;2.43;;
41927;SDS011;27616;51.420;6.788;2023-04-15T14:31:10;4.83;;;2.27;;
41927;SDS011;27616;51.420;6.788;2023-04-15T14:33:36;3.50;;;2.00;;
41927;SDS011;27616;51.420;6.788;2023-04-15T14:36:01;4.37;;;2.20;;
41927;SDS011;27616;51.420;6.788;2023-04-15T14:38:28;4.00;;;2.43;;
41927;SDS011;27616;51.420;6.788;2023-04-15T14:40:53;4.77;;;2.10;;
41927;SDS011;27616;51.420;6.788;2023-04-15T14:43:19;5.53;;;2.70;;
41927;SDS011;27616;51.420;6.788;2023-04-15T14:45:45;6.10;;;2.30;;
41927;SDS011;27616;51.420;6.788;2023-04-15T14:48:11;5.97;;;2.50;;
41927;SDS011;27616;51.420;6.788;2023-04-15T14:50:37;5.37;;;2.80;;
41927;SDS011;27616;51.420;6.788;2023-04-15T14:53:04;4.20;;;2.30;;
41927;SDS011;27616;51.420;6.788;2023-04-15T14:55:29;4.70;;;2.50;;
41927;SDS011;27616;51.420;6.788;2023-04-15T14:57:55;5.20;;;2.27;;
41927;SDS011;27616;51.420;6.788;2023-04-15T15:00:21;5.40;;;2.40;;
41927;SDS011;27616;51.420;6.788;2023-04-15T15:02:46;3.90;;;2.23;;
41927;SDS011;27616;51.420;6.788;2023-04-15T15:05:12;4.27;;;2.20;;
41927;SDS011;27616;51.420;6.788;2023-04-15T15:07:38;3.67;;;2.17;;
41927;SDS011;27616;51.420;6.788;2023-04-15T15:10:05;4.60;;;2.30;;
41927;SDS011;27616;51.420;6.788;2023-04-15T15:12:31;4.27;;;2.50;;
41927;SDS011;27616;51.420;6.788;2023-04-15T15:14:57;6.03;;;2.37;;
41927;SDS011;27616;51.420;6.788;2023-04-15T15:17:23;4.70;;;2.37;;